Time;durP1;ratioP1;P1;durP2;ratioP2;P2;SDS_P1;SDS_P2;PMS_P1;PMS_P2;Temp;Humidity;BMP_temperature;BMP_pressure;BME280_temperature;BME280_humidity;BME280_pressure;Samples;Min_cycle;Max_cycle;Signal;HPM_P1;HPM_P2
2022/10/10 00:02:10;;;;;;;5.60;4.10;;;;;;;23.61;46.73;97120.31;5014042;28;20045;-25
2022/10/10 00:04:36;;;;;;;5.53;4.22;;;;;;;23.62;46.57;97118.31;5013714;28;20029;-25
2022/10/10 00:07:02;;;;;;;5.05;3.88;;;;;;;23.57;46.55;97111.50;5014144;28;20064;-25
2022/10/10 00:09:27;;;;;;;4.93;3.80;;;;;;;23.56;47.01;97109.22;5014187;28;20037;-25
2022/10/10 00:11:53;;;;;;;5.10;4.25;;;;;;;23.60;46.77;97115.31;5013721;28;20026;-25
2022/10/10 00:14:19;;;;;;;7.05;4.75;;;;;;;23.59;46.67;97120.06;5013888;28;20029;-25
2022/10/10 00:16:44;;;;;;;4.72;4.10;;;;;;;23.62;46.66;97123.84;5013708;28;20363;-25
2022/10/10 00:19:10;;;;;;;7.72;4.68;;;;;;;23.60;46.58;97121.59;5013816;28;20026;-25
2022/10/10 00:21:35;;;;;;;5.15;4.07;;;;;;;23.60;46.94;97126.38;5013659;28;20029;-26
2022/10/10 00:24:01;;;;;;;4.75;4.13;;;;;;;23.62;46.64;97112.78;5015590;28;20029;-25
2022/10/10 00:26:26;;;;;;;5.05;4.53;;;;;;;23.59;46.86;97117.31;5033235;28;20151;-25
2022/10/10 00:28:52;;;;;;;3.97;3.58;;;;;;;23.58;46.84;97126.88;5033765;28;20021;-25
2022/10/10 00:31:17;;;;;;;5.05;4.05;;;;;;;23.63;46.49;97115.03;5032109;28;20470;-25
2022/10/10 00:33:43;;;;;;;5.45;3.90;;;;;;;23.60;46.70;97120.84;5033296;28;20021;-25
2022/10/10 00:36:09;;;;;;;6.00;3.80;;;;;;;23.60;46.55;97115.31;5023605;28;20034;-25
2022/10/10 00:38:35;;;;;;;6.05;4.55;;;;;;;23.62;46.63;97108.00;5011261;28;20482;-25
2022/10/10 00:41:01;;;;;;;4.93;3.80;;;;;;;23.58;46.63;97106.72;5013104;28;20026;-25
2022/10/10 00:43:27;;;;;;;5.70;4.22;;;;;;;23.60;46.61;97098.69;5013591;28;20049;-26
2022/10/10 00:45:53;;;;;;;3.88;3.53;;;;;;;23.57;46.97;97107.97;5013488;28;20037;-25
2022/10/10 00:48:28;;;;;;;5.78;3.92;;;;;;;23.54;46.94;97100.66;5016864;28;20079;-25
2022/10/10 00:51:10;;;;;;;4.55;3.72;;;;;;;23.55;46.57;97099.41;5016164;28;20053;-25
2022/10/10 00:53:40;;;;;;;5.38;3.85;;;;;;;23.58;46.56;97095.66;5017283;28;20104;-25
2022/10/10 00:56:07;;;;;;;6.05;3.75;;;;;;;23.55;46.70;97097.41;5017510;28;20057;-25
2022/10/10 00:58:34;;;;;;;5.93;3.90;;;;;;;23.59;46.66;97094.41;5017251;28;20601;-25
2022/10/10 01:01:00;;;;;;;4.57;3.72;;;;;;;23.57;46.56;97094.13;5017444;28;20467;-25
2022/10/10 01:03:26;;;;;;;5.45;3.80;;;;;;;23.60;46.17;97098.69;5035524;28;20037;-25
2022/10/10 01:05:52;;;;;;;7.18;3.55;;;;;;;23.59;46.27;97092.41;5036963;28;20026;-25
2022/10/10 01:08:18;;;;;;;5.03;3.80;;;;;;;23.56;46.67;97092.63;5036985;28;20028;-25
2022/10/10 01:11:16;;;;;;;3.55;3.25;;;;;;;23.56;46.48;97090.63;5036823;28;20108;-25
2022/10/10 01:14:06;;;;;;;5.05;3.53;;;;;;;23.58;46.28;97081.81;5036830;28;20025;-26
2022/10/10 01:16:44;;;;;;;3.67;3.25;;;;;;;23.58;46.09;97090.13;5036314;28;20025;-25
2022/10/10 01:19:39;;;;;;;5.78;3.60;;;;;;;23.59;46.29;97083.31;5035507;28;20032;-25
2022/10/10 01:22:35;;;;;;;6.63;3.92;;;;;;;23.53;46.59;97072.22;5036969;28;20497;-25
2022/10/10 01:25:03;;;;;;;5.63;4.03;;;;;;;23.58;46.23;97079.81;5036689;28;20076;-25
2022/10/10 01:27:35;;;;;;;3.97;3.53;;;;;;;23.58;46.29;97079.81;5036553;28;20030;-25
2022/10/10 01:30:14;;;;;;;5.93;3.50;;;;;;;23.56;46.36;97092.63;5036342;28;20025;-25
2022/10/10 01:32:50;;;;;;;4.80;3.60;;;;;;;23.58;46.55;97090.88;5036832;28;20018;-25
2022/10/10 01:35:38;;;;;;;4.00;3.55;;;;;;;23.57;46.33;97085.84;5036447;28;20381;-25
2022/10/10 01:38:26;;;;;;;4.13;3.30;;;;;;;23.55;46.25;97080.03;5036173;28;20026;-26
2022/10/10 01:40:56;;;;;;;4.30;3.60;;;;;;;23.55;46.40;97077.25;5036133;28;20046;-25
2022/10/10 01:43:24;;;;;;;4.25;3.50;;;;;;;23.58;46.40;97077.03;5034851;28;20025;-25
2022/10/10 01:45:51;;;;;;;5.00;3.72;;;;;;;23.57;46.35;97061.66;5036188;28;20026;-25
2022/10/10 01:48:26;;;;;;;4.43;3.83;;;;;;;23.53;46.35;97063.91;5036764;28;20083;-25
2022/10/10 01:50:55;;;;;;;5.20;3.47;;;;;;;23.55;46.26;97060.66;5036023;28;20405;-25
2022/10/10 01:53:36;;;;;;;4.57;3.53;;;;;;;23.53;46.23;97061.16;5036028;28;20060;-26
2022/10/10 01:56:07;;;;;;;4.18;3.35;;;;;;;23.53;46.23;97068.69;5036090;28;20087;-26
2022/10/10 01:58:51;;;;;;;4.40;3.47;;;;;;;23.49;46.46;97063.34;5035575;28;20067;-26
2022/10/10 02:01:50;;;;;;;4.13;3.35;;;;;;;23.53;46.46;97066.69;5035889;28;20030;-25
2022/10/10 02:04:30;;;;;;;5.47;3.95;;;;;;;23.55;46.35;97068.94;5035156;28;20132;-25
2022/10/10 02:07:31;;;;;;;3.95;3.42;;;;;;;23.53;46.17;97063.16;5035937;28;20030;-25
2022/10/10 02:10:00;;;;;;;4.13;3.53;;;;;;;23.52;46.25;97064.41;5035547;28;20021;-25
2022/10/10 02:12:28;;;;;;;4.32;3.40;;;;;;;23.54;46.23;97056.38;5035929;28;20417;-26
2022/10/10 02:15:00;;;;;;;5.80;4.07;;;;;;;23.54;46.33;97057.13;5035688;28;20608;-25
2022/10/10 02:17:26;;;;;;;5.83;3.50;;;;;;;23.49;46.57;97054.31;5035923;28;20028;-25
2022/10/10 02:19:59;;;;;;;5.68;3.72;;;;;;;23.56;46.08;97051.09;5034686;28;20374;-25
2022/10/10 02:22:27;;;;;;;5.95;3.42;;;;;;;23.53;46.14;97049.31;5035685;28;20029;-25
2022/10/10 02:24:53;;;;;;;5.47;4.07;;;;;;;23.57;46.17;97049.84;5035361;28;20422;-25
2022/10/10 02:27:29;;;;;;;4.10;3.45;;;;;;;23.53;46.05;97052.06;5035506;28;20532;-25
2022/10/10 02:29:57;;;;;;;4.63;3.67;;;;;;;23.53;46.01;97050.06;5035473;28;20453;-25
2022/10/10 02:32:40;;;;;;;4.25;3.80;;;;;;;23.50;46.25;97051.06;5035317;28;20029;-25
2022/10/10 02:35:12;;;;;;;5.30;3.63;;;;;;;23.54;46.06;97045.28;5035448;28;20461;-25
2022/10/10 02:37:40;;;;;;;4.35;3.42;;;;;;;23.50;46.11;97042.75;5035196;28;20049;-25
2022/10/10 02:40:09;;;;;;;4.70;3.58;;;;;;;23.52;46.11;97047.78;5035206;28;20049;-26
2022/10/10 02:42:35;;;;;;;4.43;3.33;;;;;;;23.47;46.17;97035.44;5035345;28;20034;-25
2022/10/10 02:45:02;;;;;;;3.60;3.25;;;;;;;23.46;46.06;97024.84;5034978;28;20037;-25
2022/10/10 02:47:28;;;;;;;4.82;3.95;;;;;;;23.49;46.21;97023.88;5035053;28;20029;-25
2022/10/10 02:49:54;;;;;;;4.82;3.80;;;;;;;23.52;46.25;97022.88;5033748;28;20025;-26
2022/10/10 02:52:19;;;;;;;5.40;3.25;;;;;;;23.50;46.10;97034.44;5034864;28;20045;-25
2022/10/10 02:54:45;;;;;;;6.18;3.70;;;;;;;23.55;46.15;97030.19;5034936;28;20029;-25
2022/10/10 02:57:11;;;;;;;5.55;3.75;;;;;;;23.49;46.23;97032.16;5033621;28;20030;-26
2022/10/10 02:59:36;;;;;;;4.50;3.85;;;;;;;23.50;45.78;97025.34;5034673;28;20100;-26
2022/10/10 03:02:02;;;;;;;5.15;3.78;;;;;;;23.50;45.93;97034.44;5034837;28;20164;-25
2022/10/10 03:04:27;;;;;;;4.22;3.28;;;;;;;23.53;46.01;97032.69;5034823;28;20049;-26
2022/10/10 03:06:53;;;;;;;4.78;3.33;;;;;;;23.53;45.93;97025.16;5034560;28;20111;-25
2022/10/10 03:09:18;;;;;;;6.57;3.47;;;;;;;23.49;46.08;97021.09;5033853;28;20025;-25
2022/10/10 03:11:44;;;;;;;5.30;3.42;;;;;;;23.48;45.84;97030.66;5034656;28;20029;-25
2022/10/10 03:14:09;;;;;;;6.10;3.53;;;;;;;23.53;45.89;97035.47;5034472;28;20021;-25
2022/10/10 03:16:35;;;;;;;4.72;3.35;;;;;;;23.52;46.11;97029.16;5034439;28;20038;-25
2022/10/10 03:19:02;;;;;;;3.58;3.17;;;;;;;23.52;45.94;97037.47;5034510;28;20053;-26
2022/10/10 03:21:27;;;;;;;5.00;3.38;;;;;;;23.50;45.75;97039.19;5034342;28;20080;-26
2022/10/10 03:23:53;;;;;;;3.70;3.30;;;;;;;23.52;46.10;97037.47;5034390;28;20033;-26
2022/10/10 03:26:19;;;;;;;4.20;3.15;;;;;;;23.51;46.02;97041.50;5034156;28;20524;-25
2022/10/10 03:28:44;;;;;;;3.97;3.58;;;;;;;23.52;45.81;97042.25;5034496;28;20592;-25
2022/10/10 03:31:10;;;;;;;5.95;3.25;;;;;;;23.48;45.81;97050.78;5034495;28;20033;-26
2022/10/10 03:33:35;;;;;;;5.03;3.78;;;;;;;23.49;45.95;97046.00;5034110;28;20105;-25
2022/10/10 03:36:01;;;;;;;4.47;3.70;;;;;;;23.49;45.90;97037.72;5034437;28;20026;-25
2022/10/10 03:38:27;;;;;;;3.90;3.17;;;;;;;23.50;45.87;97033.66;5033792;28;20402;-25
2022/10/10 03:40:52;;;;;;;4.75;3.67;;;;;;;23.48;46.02;97031.41;5034017;28;20052;-25
2022/10/10 03:43:18;;;;;;;4.95;3.75;;;;;;;23.49;45.98;97032.16;5033948;28;20429;-27
2022/10/10 03:45:46;;;;;;;3.63;3.08;;;;;;;23.48;45.77;97047.28;5033952;28;20056;-25
2022/10/10 03:48:12;;;;;;;4.53;3.30;;;;;;;23.46;45.90;97041.47;5033851;28;20021;-25
2022/10/10 03:50:38;;;;;;;4.32;3.47;;;;;;;23.45;46.02;97053.78;5033895;28;20177;-25
2022/10/10 03:53:03;;;;;;;3.83;3.40;;;;;;;23.44;46.06;97055.78;5034062;28;20053;-25
2022/10/10 03:55:29;;;;;;;5.50;3.80;;;;;;;23.47;45.87;97062.34;5034075;28;20096;-26
2022/10/10 03:57:54;;;;;;;4.07;3.50;;;;;;;23.48;45.68;97061.09;5033839;28;20022;-26
2022/10/10 04:00:20;;;;;;;4.20;3.70;;;;;;;23.47;45.97;97062.34;5033720;28;20025;-25
2022/10/10 04:02:45;;;;;;;4.85;3.58;;;;;;;23.44;46.05;97069.63;5033636;28;20029;-25
2022/10/10 04:05:11;;;;;;;4.57;3.78;;;;;;;23.45;46.16;97067.63;5033955;28;20075;-25
2022/10/10 04:07:37;;;;;;;4.85;3.60;;;;;;;23.48;45.81;97053.56;5033761;28;20513;-25
2022/10/10 04:10:03;;;;;;;4.07;3.67;;;;;;;23.47;46.01;97060.34;5033618;28;20486;-25
2022/10/10 04:12:28;;;;;;;5.72;3.50;;;;;;;23.50;45.85;97067.66;5033607;28;20108;-26
2022/10/10 04:14:54;;;;;;;4.72;3.70;;;;;;;23.46;45.88;97060.84;5033431;28;20109;-25
2022/10/10 04:17:19;;;;;;;5.95;3.83;;;;;;;23.45;45.93;97051.03;5033721;28;20462;-27
2022/10/10 04:19:45;;;;;;;5.45;3.70;;;;;;;23.45;45.92;97059.31;5033385;28;20032;-25
2022/10/10 04:22:10;;;;;;;4.47;3.40;;;;;;;23.43;46.15;97051.50;5033358;28;20377;-25
2022/10/10 04:24:36;;;;;;;5.22;3.30;;;;;;;23.45;45.94;97056.56;5033502;28;20033;-25
2022/10/10 04:27:01;;;;;;;4.60;3.88;;;;;;;23.45;45.90;97053.78;5033277;28;20025;-26
2022/10/10 04:29:26;;;;;;;4.15;3.28;;;;;;;23.39;46.07;97050.97;5033596;28;20030;-25
2022/10/10 04:31:52;;;;;;;4.90;3.65;;;;;;;23.38;45.96;97048.72;5033298;28;20024;-25
2022/10/10 04:34:17;;;;;;;4.57;3.65;;;;;;;23.43;46.03;97050.75;5033666;28;20025;-25
2022/10/10 04:36:43;;;;;;;5.53;3.80;;;;;;;23.43;46.04;97045.22;5033271;28;20025;-25
2022/10/10 04:39:08;;;;;;;4.57;3.50;;;;;;;23.44;46.08;97043.97;5033250;28;20125;-25
2022/10/10 04:41:34;;;;;;;4.22;3.63;;;;;;;23.42;46.00;97043.69;5033335;28;20033;-25
2022/10/10 04:43:59;;;;;;;5.53;4.22;;;;;;;23.44;46.24;97050.25;5033252;28;20458;-26
2022/10/10 04:46:25;;;;;;;5.57;3.97;;;;;;;23.45;46.30;97048.25;5033188;28;20026;-25
2022/10/10 04:48:50;;;;;;;4.85;3.85;;;;;;;23.45;46.31;97048.25;5033416;28;20041;-25
2022/10/10 04:51:16;;;;;;;5.25;3.83;;;;;;;23.46;46.21;97045.00;5033124;28;20416;-25
2022/10/10 04:53:41;;;;;;;5.68;4.00;;;;;;;23.44;46.32;97052.28;5031932;28;20029;-26
2022/10/10 04:56:07;;;;;;;5.07;3.67;;;;;;;23.45;46.42;97067.63;5033274;28;20033;-25
2022/10/10 04:58:32;;;;;;;4.70;3.88;;;;;;;23.44;46.54;97069.63;5033076;28;20025;-25
2022/10/10 05:00:58;;;;;;;4.75;3.72;;;;;;;23.42;46.48;97071.38;5033178;28;20029;-25
2022/10/10 05:03:24;;;;;;;4.88;3.95;;;;;;;23.43;46.41;97056.28;5033022;28;20026;-26
2022/10/10 05:05:50;;;;;;;5.05;4.03;;;;;;;23.42;46.54;97055.53;5033118;28;20064;-25
2022/10/10 05:08:17;;;;;;;6.40;4.63;;;;;;;23.44;46.40;97052.28;5032991;28;20063;-27
2022/10/10 05:10:45;;;;;;;5.72;4.00;;;;;;;23.40;46.35;97052.50;5031775;28;20072;-25
2022/10/10 05:13:12;;;;;;;5.43;3.88;;;;;;;23.46;46.61;97058.06;5033164;28;20056;-26
2022/10/10 05:15:38;;;;;;;5.85;3.95;;;;;;;23.45;46.50;97059.31;5033151;28;20029;-25
2022/10/10 05:18:04;;;;;;;6.38;4.57;;;;;;;23.41;46.60;97051.25;5033010;28;20029;-26
2022/10/10 05:20:31;;;;;;;5.55;4.35;;;;;;;23.41;46.78;97070.63;5032917;28;20040;-25
2022/10/10 05:22:56;;;;;;;4.80;4.10;;;;;;;23.38;46.47;97066.06;5032949;28;20385;-25
2022/10/10 05:25:22;;;;;;;4.57;4.18;;;;;;;23.38;46.75;97063.31;5033039;28;20021;-25
2022/10/10 05:27:47;;;;;;;4.28;3.88;;;;;;;23.43;46.59;97051.50;5032814;28;20045;-25
2022/10/10 05:30:14;;;;;;;4.45;3.92;;;;;;;23.43;46.62;97059.06;5033066;28;20055;-26
2022/10/10 05:32:39;;;;;;;6.30;4.55;;;;;;;23.38;46.75;97059.78;5033270;28;20025;-25
2022/10/10 05:35:06;;;;;;;4.75;4.18;;;;;;;23.38;46.82;97060.53;5036480;28;20377;-25
2022/10/10 05:37:31;;;;;;;5.10;4.05;;;;;;;23.37;46.91;97063.81;5036625;28;20032;-25
2022/10/10 05:39:57;;;;;;;5.70;4.57;;;;;;;23.40;46.96;97060.81;5034867;28;20054;-25
2022/10/10 05:42:22;;;;;;;6.05;4.32;;;;;;;23.40;46.97;97063.56;5036486;28;20025;-26
2022/10/10 05:44:50;;;;;;;5.22;4.28;;;;;;;23.38;46.67;97065.31;5036549;28;20492;-25
2022/10/10 05:47:16;;;;;;;5.85;4.45;;;;;;;23.42;47.11;97069.38;5036211;28;20059;-25
2022/10/10 05:49:42;;;;;;;5.13;4.28;;;;;;;23.43;46.62;97056.28;5036218;28;20417;-25
2022/10/10 05:52:07;;;;;;;4.93;4.18;;;;;;;23.40;46.97;97051.75;5036107;28;20021;-25
2022/10/10 05:54:33;;;;;;;5.78;4.57;;;;;;;23.38;46.83;97057.78;5035928;28;20501;-25
2022/10/10 05:56:58;;;;;;;5.55;4.40;;;;;;;23.39;46.98;97061.28;5036125;28;20084;-25
2022/10/10 05:59:24;;;;;;;5.10;4.20;;;;;;;23.41;46.84;97069.88;5036073;28;20025;-26
2022/10/10 06:01:49;;;;;;;4.60;4.10;;;;;;;23.40;47.07;97066.34;5036031;28;20033;-25
2022/10/10 06:04:15;;;;;;;4.72;4.05;;;;;;;23.42;47.11;97071.38;5036168;28;20033;-25
2022/10/10 06:06:40;;;;;;;6.93;4.15;;;;;;;23.35;47.15;97080.94;5035821;28;20040;-25
2022/10/10 06:09:06;;;;;;;5.90;4.82;;;;;;;23.42;47.31;97088.00;5035758;28;20025;-25
2022/10/10 06:11:32;;;;;;;6.65;4.32;;;;;;;23.44;46.92;97091.03;5035821;28;20466;-25
2022/10/10 06:13:57;;;;;;;5.63;4.38;;;;;;;23.46;47.03;97094.06;5035814;28;20386;-25
2022/10/10 06:16:25;;;;;;;4.55;4.03;;;;;;;23.42;46.92;97104.59;5035170;28;20481;-25
2022/10/10 06:18:51;;;;;;;6.07;4.95;;;;;;;23.44;47.22;97096.56;5032723;28;20041;-25
2022/10/10 06:21:17;;;;;;;6.88;4.65;;;;;;;23.41;47.33;97103.09;5033667;28;20079;-26
2022/10/10 06:23:43;;;;;;;5.57;4.30;;;;;;;23.42;46.91;97097.06;5033732;28;20079;-25
2022/10/10 06:26:09;;;;;;;7.07;4.15;;;;;;;23.41;47.50;97092.00;5033703;28;20029;-25
2022/10/10 06:28:35;;;;;;;5.90;4.53;;;;;;;23.41;47.30;97092.00;5033212;28;20029;-25
2022/10/10 06:31:03;;;;;;;5.22;4.72;;;;;;;23.43;47.11;97106.13;5033517;28;20026;-27
2022/10/10 06:33:29;;;;;;;6.63;4.63;;;;;;;23.44;47.02;97088.25;5033451;28;20025;-26
2022/10/10 06:35:54;;;;;;;5.78;4.47;;;;;;;23.45;47.05;97104.38;5033029;28;20477;-26
2022/10/10 06:38:19;;;;;;;7.35;4.13;;;;;;;23.46;47.27;97094.06;5031685;28;20385;-25
2022/10/10 06:40:45;;;;;;;7.28;5.30;;;;;;;23.41;47.37;97095.53;5033065;28;20064;-25
2022/10/10 06:43:13;;;;;;;6.60;4.30;;;;;;;23.40;47.49;97096.03;5032745;28;20029;-26
2022/10/10 06:45:44;;;;;;;6.47;4.63;;;;;;;23.35;47.90;97094.00;5032139;28;20029;-25
2022/10/10 06:48:11;;;;;;;6.70;4.90;;;;;;;23.38;47.53;97093.75;5031769;28;20036;-27
2022/10/10 06:50:36;;;;;;;5.75;4.57;;;;;;;23.37;47.80;97099.81;5033042;28;20465;-25
2022/10/10 06:53:02;;;;;;;5.32;4.40;;;;;;;23.35;47.81;97088.47;5032843;28;20092;-26
2022/10/10 06:55:28;;;;;;;6.38;4.80;;;;;;;23.41;47.69;97080.94;5033092;28;20108;-25
2022/10/10 06:57:54;;;;;;;6.80;4.90;;;;;;;23.39;47.61;97077.91;5033022;28;20034;-25
2022/10/10 07:00:19;;;;;;;6.15;4.88;;;;;;;23.41;47.58;97069.88;5032979;28;20513;-25
2022/10/10 07:02:45;;;;;;;7.05;4.60;;;;;;;23.41;47.53;97080.94;5032819;28;20135;-25
2022/10/10 07:05:12;;;;;;;7.60;4.78;;;;;;;23.35;47.73;97078.16;5032462;28;20049;-26
2022/10/10 07:07:38;;;;;;;5.32;4.70;;;;;;;23.39;47.80;97081.44;5032682;28;20037;-25
2022/10/10 07:10:06;;;;;;;7.07;4.50;;;;;;;23.42;47.50;97088.00;5032655;28;20029;-26
2022/10/10 07:12:31;;;;;;;6.03;4.50;;;;;;;23.40;47.78;97098.81;5030973;28;20029;-25
2022/10/10 07:14:57;;;;;;;6.72;4.22;;;;;;;23.39;47.93;97092.50;5032644;28;20079;-25
2022/10/10 07:17:22;;;;;;;5.75;4.22;;;;;;;23.35;48.25;97091.25;5032366;28;20026;-25
2022/10/10 07:19:48;;;;;;;6.97;5.07;;;;;;;23.37;48.27;97092.25;5032408;28;20041;-26
2022/10/10 07:22:13;;;;;;;5.55;4.25;;;;;;;23.35;47.97;97092.00;5032519;28;20037;-25
2022/10/10 07:24:39;;;;;;;5.57;4.10;;;;;;;23.35;48.13;97103.06;5032405;28;20032;-25
2022/10/10 07:27:05;;;;;;;7.57;4.03;;;;;;;23.35;48.21;97105.09;5032421;28;20026;-25
2022/10/10 07:29:30;;;;;;;5.78;4.15;;;;;;;23.38;48.21;97098.53;5031890;28;20060;-25
2022/10/10 07:31:56;;;;;;;6.80;4.55;;;;;;;23.37;48.13;97097.78;5032211;28;20658;-26
2022/10/10 07:34:22;;;;;;;6.10;4.30;;;;;;;23.35;48.13;97096.78;5032297;28;20120;-25
2022/10/10 07:36:49;;;;;;;4.90;4.38;;;;;;;23.38;48.27;97095.75;5019622;28;20117;-27
2022/10/10 07:39:24;;;;;;;4.78;4.10;;;;;;;23.38;48.10;97098.53;5012442;28;20489;-25
2022/10/10 07:41:53;;;;;;;5.20;4.03;;;;;;;23.34;48.54;97098.03;5012363;28;20497;-25
2022/10/10 07:44:19;;;;;;;5.68;4.28;;;;;;;23.35;48.48;97094.00;5012417;28;20030;-25
2022/10/10 07:46:45;;;;;;;7.22;4.57;;;;;;;23.38;48.24;97104.06;5012255;28;20088;-25
2022/10/10 07:49:11;;;;;;;4.95;4.30;;;;;;;23.31;48.48;97099.78;5012398;28;20030;-25
2022/10/10 07:51:37;;;;;;;4.65;4.00;;;;;;;23.25;48.76;97102.50;5012235;28;20040;-26
2022/10/10 07:54:04;;;;;;;6.13;4.55;;;;;;;23.27;48.77;97107.53;5012001;28;20033;-25
2022/10/10 07:56:30;;;;;;;4.57;4.13;;;;;;;23.26;48.65;97109.53;5011656;28;20485;-25
2022/10/10 07:58:55;;;;;;;5.35;4.20;;;;;;;23.24;48.87;97111.31;5012024;28;20026;-25
2022/10/10 08:01:21;;;;;;;5.50;4.47;;;;;;;23.23;48.86;97110.56;5012010;28;20409;-25
2022/10/10 08:03:47;;;;;;;6.47;5.50;;;;;;;22.03;53.29;97104.25;5011982;28;20492;-29
2022/10/10 08:06:15;;;;;;;12.48;7.43;;;;;;;22.17;52.96;97106.16;5010504;28;20037;-26
2022/10/10 08:08:42;;;;;;;11.93;6.43;;;;;;;22.79;51.41;97110.25;5011915;28;20041;-27
2022/10/10 08:11:09;;;;;;;7.18;6.05;;;;;;;23.09;50.22;97103.16;5012036;28;20034;-27
2022/10/10 08:13:36;;;;;;;8.05;5.65;;;;;;;22.93;50.64;97103.81;5009811;28;20026;-26
2022/10/10 08:16:03;;;;;;;9.60;5.53;;;;;;;23.11;49.87;97114.50;5011979;28;20029;-28
2022/10/10 08:18:28;;;;;;;7.80;4.82;;;;;;;23.11;50.03;97113.75;5011120;28;20459;-27
2022/10/10 08:21:03;;;;;;;5.82;4.72;;;;;;;23.12;49.97;97120.81;5011699;28;20088;-26
2022/10/10 08:23:29;;;;;;;8.02;4.90;;;;;;;23.13;49.89;97114.75;5011840;28;20072;-27
2022/10/10 08:25:58;;;;;;;7.55;5.25;;;;;;;23.12;49.79;97106.97;5011744;28;20018;-26
2022/10/10 08:28:24;;;;;;;7.15;4.45;;;;;;;23.09;50.09;97111.47;5011721;28;20021;-26
2022/10/10 08:30:49;;;;;;;7.35;4.35;;;;;;;23.19;49.46;97118.31;5012225;28;20107;-26
2022/10/10 08:33:15;;;;;;;5.20;4.32;;;;;;;23.25;49.49;97113.56;5013901;28;20426;-26
2022/10/10 08:35:40;;;;;;;5.63;4.45;;;;;;;23.24;49.51;97112.03;5013485;28;20033;-26
2022/10/10 08:38:06;;;;;;;6.38;3.85;;;;;;;23.18;49.61;97125.09;5012875;28;20053;-26
2022/10/10 08:40:32;;;;;;;7.50;4.55;;;;;;;23.13;49.60;97117.50;5012932;28;20025;-27
2022/10/10 08:43:05;;;;;;;5.68;4.40;;;;;;;23.12;50.00;97104.94;5011788;28;20075;-26
2022/10/10 08:45:32;;;;;;;5.38;4.20;;;;;;;23.12;49.83;97118.75;5013209;28;20478;-26
2022/10/10 08:48:13;;;;;;;5.43;3.88;;;;;;;22.97;50.35;97120.19;5013246;28;20064;-26
2022/10/10 08:50:50;;;;;;;6.38;4.28;;;;;;;23.18;49.77;97129.88;5013692;28;20375;-27
2022/10/10 08:53:21;;;;;;;7.57;5.18;;;;;;;23.28;49.82;97129.19;5013879;28;20026;-26
2022/10/10 08:55:47;;;;;;;4.95;4.22;;;;;;;23.14;50.06;97130.09;5013651;28;20022;-27
2022/10/10 08:58:28;;;;;;;5.82;4.22;;;;;;;23.24;49.31;97136.94;5013341;28;20049;-26
2022/10/10 09:01:20;;;;;;;5.75;4.95;;;;;;;23.23;49.84;97143.00;5013453;28;20493;-26
2022/10/10 09:03:50;;;;;;;6.93;4.50;;;;;;;23.20;49.66;97141.97;5013306;28;20022;-26
2022/10/10 09:06:42;;;;;;;6.47;4.30;;;;;;;23.13;50.13;97134.13;5013463;28;20462;-27
2022/10/10 09:09:14;;;;;;;5.10;3.80;;;;;;;23.22;49.47;97139.47;5016432;28;20034;-26
2022/10/10 09:11:45;;;;;;;5.63;3.83;;;;;;;23.25;49.34;97132.94;5017052;28;20564;-26
2022/10/10 09:14:13;;;;;;;5.28;4.15;;;;;;;23.18;49.61;97136.16;5017550;28;20053;-26
2022/10/10 09:16:58;;;;;;;5.18;4.20;;;;;;;23.20;49.67;97135.69;5017136;28;20025;-26
2022/10/10 09:19:32;;;;;;;5.63;4.40;;;;;;;23.15;50.00;97136.38;5016922;28;20036;-27
2022/10/10 09:22:02;;;;;;;4.65;4.00;;;;;;;23.24;49.40;97131.41;5016302;28;20468;-26
2022/10/10 09:24:31;;;;;;;5.05;4.00;;;;;;;23.26;49.16;97140.00;5017170;28;20018;-27
2022/10/10 09:27:04;;;;;;;4.68;4.18;;;;;;;23.25;49.57;97140.47;5016859;28;20022;-27
2022/10/10 09:29:41;;;;;;;;;;;;;;;23.29;49.22;97138.25;5016032;28;20393;-26
2022/10/10 09:32:21;;;;;;;5.93;4.00;;;;;;;23.38;49.25;97148.34;5019068;28;19917;-26
2022/10/10 09:34:57;;;;;;;6.70;4.68;;;;;;;23.10;49.81;97153.72;5017508;28;20109;-25
2022/10/10 09:37:31;;;;;;;4.60;3.90;;;;;;;23.10;50.05;97148.97;5016929;28;20053;-27
2022/10/10 09:40:05;;;;;;;4.90;4.25;;;;;;;23.27;49.19;97138.75;5016489;28;20042;-27
2022/10/10 09:42:34;;;;;;;3.80;3.40;;;;;;;23.40;49.27;97143.09;5026109;28;20033;-26
2022/10/10 09:45:00;;;;;;;5.75;4.28;;;;;;;23.26;49.03;97142.75;5017066;28;20473;-26
2022/10/10 09:47:27;;;;;;;5.05;3.78;;;;;;;23.38;48.99;97149.13;5016249;28;20029;-26
2022/10/10 09:49:53;;;;;;;5.22;4.28;;;;;;;23.03;49.98;97145.88;5016504;28;20037;-26
2022/10/10 09:52:29;;;;;;;4.28;3.88;;;;;;;23.20;49.78;97139.22;5016563;28;20030;-27
2022/10/10 09:55:19;;;;;;;4.80;4.20;;;;;;;23.39;49.06;97136.03;5016417;28;20084;-25
2022/10/10 09:57:46;;;;;;;5.70;4.00;;;;;;;23.41;49.05;97139.06;5015714;28;20042;-26
2022/10/10 10:00:18;;;;;;;5.93;4.50;;;;;;;23.38;49.04;97140.81;5016258;28;20026;-26
2022/10/10 10:02:47;;;;;;;6.93;4.72;;;;;;;23.37;49.77;97138.56;5016137;28;20030;-27
2022/10/10 10:05:26;;;;;;;5.43;4.05;;;;;;;23.24;49.56;97131.41;5016135;28;20087;-26
2022/10/10 10:07:52;;;;;;;6.38;5.35;;;;;;;23.09;50.06;97133.59;5016408;28;20021;-26
2022/10/10 10:10:21;;;;;;;6.30;4.88;;;;;;;22.98;50.67;97130.75;5016265;28;20538;-26
2022/10/10 10:12:47;;;;;;;5.43;4.03;;;;;;;23.21;49.88;97145.50;5015958;28;20032;-25
2022/10/10 10:15:21;;;;;;;5.13;4.00;;;;;;;23.25;49.55;97146.78;5015920;28;20453;-26
2022/10/10 10:18:16;;;;;;;5.70;3.95;;;;;;;23.24;49.51;97141.75;5016001;28;20443;-28
2022/10/10 10:20:44;;;;;;;5.65;4.22;;;;;;;23.17;49.73;97150.50;5016119;28;20105;-26
2022/10/10 10:23:28;;;;;;;4.35;3.95;;;;;;;23.24;49.63;97148.03;5015746;28;20034;-27
2022/10/10 10:26:19;;;;;;;4.72;3.97;;;;;;;23.07;50.43;97152.69;5015811;28;20087;-26
2022/10/10 10:28:47;;;;;;;4.75;4.07;;;;;;;23.22;49.69;97133.94;5014443;28;20076;-26
2022/10/10 10:31:26;;;;;;;6.28;4.60;;;;;;;23.28;49.64;97131.94;5013647;28;20046;-26
2022/10/10 10:34:22;;;;;;;5.85;4.30;;;;;;;23.12;49.97;97145.69;5015276;28;20561;-26
2022/10/10 10:37:10;;;;;;;4.07;3.53;;;;;;;23.30;49.01;97145.31;5015409;28;20030;-27
2022/10/10 10:40:08;;;;;;;4.05;3.55;;;;;;;23.44;48.90;97146.38;5015407;28;20125;-25
2022/10/10 10:42:41;;;;;;;4.70;3.90;;;;;;;23.44;48.59;97147.16;5015452;28;20045;-27
2022/10/10 10:45:28;;;;;;;4.65;3.90;;;;;;;23.45;48.80;97142.38;5015526;28;20026;-26
2022/10/10 10:48:06;;;;;;;4.38;3.58;;;;;;;23.20;49.33;97139.22;5015230;28;20029;-26
2022/10/10 10:51:06;;;;;;;5.07;3.83;;;;;;;23.35;48.98;97139.06;5015297;28;20030;-26
2022/10/10 10:53:39;;;;;;;6.93;4.07;;;;;;;23.11;48.91;97144.94;5015235;28;20037;-27
2022/10/10 10:56:22;;;;;;;5.28;4.30;;;;;;;23.24;48.95;97141.75;5015475;28;20422;-26
2022/10/10 10:59:21;;;;;;;4.97;3.75;;;;;;;23.41;48.75;97139.06;5013834;28;20411;-27
2022/10/10 11:02:02;;;;;;;4.20;3.55;;;;;;;23.47;48.57;97137.09;5014931;28;20106;-28
2022/10/10 11:04:46;;;;;;;5.05;3.65;;;;;;;23.48;48.43;97135.84;5015094;28;20072;-26
2022/10/10 11:07:17;;;;;;;4.85;4.00;;;;;;;23.36;48.66;97137.81;5014990;28;20036;-26
2022/10/10 11:09:53;;;;;;;5.22;3.97;;;;;;;23.26;49.16;97131.69;5015000;28;20026;-26
2022/10/10 11:12:39;;;;;;;4.50;3.83;;;;;;;23.37;48.52;97130.25;5015225;28;20387;-26
2022/10/10 11:15:11;;;;;;;4.10;3.70;;;;;;;23.43;48.56;97125.50;5014879;28;20056;-26
2022/10/10 11:17:46;;;;;;;3.88;3.58;;;;;;;23.47;48.52;97117.72;5014696;28;20547;-26
2022/10/10 11:20:31;;;;;;;5.00;3.90;;;;;;;23.47;48.45;97131.56;5014834;28;20097;-26
2022/10/10 11:23:00;;;;;;;4.85;4.00;;;;;;;23.36;48.69;97123.19;5015011;28;20049;-26
2022/10/10 11:25:33;;;;;;;4.68;3.78;;;;;;;23.39;48.83;97124.97;5014918;28;20022;-26
2022/10/10 11:27:59;;;;;;;4.93;3.55;;;;;;;23.45;48.64;97120.22;5013354;28;20422;-27
2022/10/10 11:30:28;;;;;;;4.28;3.83;;;;;;;23.47;48.36;97124.03;5013889;28;20084;-27
2022/10/10 11:33:08;;;;;;;4.43;3.90;;;;;;;23.44;48.44;97113.94;5014696;28;20026;-27
2022/10/10 11:35:58;;;;;;;6.55;3.70;;;;;;;23.46;48.25;97107.91;5014655;28;20057;-26
2022/10/10 11:38:46;;;;;;;4.32;3.67;;;;;;;23.46;48.41;97107.91;5013995;28;20046;-26
2022/10/10 11:41:16;;;;;;;4.50;3.47;;;;;;;23.48;48.36;97103.38;5014883;28;20022;-27
2022/10/10 11:43:51;;;;;;;4.38;3.63;;;;;;;23.44;48.35;97105.63;5014391;28;20030;-26
2022/10/10 11:46:19;;;;;;;4.30;3.83;;;;;;;23.49;48.26;97112.47;5014251;28;20541;-26
2022/10/10 11:48:45;;;;;;;5.32;4.00;;;;;;;23.47;48.27;97109.41;5014564;28;20026;-27